Date,TemperatureHighF,TemperatureAvgF,TemperatureLowF,DewpointHighF,DewpointAvgF,DewpointLowF,HumidityHigh,HumidityAvg,HumidityLow,PressureMaxIn,PressureMinIn,WindSpeedMaxMPH,WindSpeedAvgMPH,GustSpeedMaxMPH,PrecipitationSumIn
2012-1-1,69.6,61.2,47.7,17.0,8.1,-13.0,29,13,4,30.24,30.15,6,2,8,0.00
2012-1-2,70.5,60.5,47.9,23.0,10.8,-8.0,27,15,5,30.25,30.16,6,2,7,0.00
2012-1-3,70.8,60.6,50.5,24.0,12.6,2.0,26,15,10,30.25,30.17,5,2,7,0.00
2012-1-4,71.2,59.8,52.5,22.0,14.0,6.0,26,17,11,30.32,30.23,6,2,7,0.00
2012-1-5,67.5,57.6,47.7,21.0,16.2,12.0,31,20,14,30.23,30.02,5,2,8,0.00
2012-1-6,64.3,53.5,43.9,27.0,21.2,15.0,38,29,20,30.05,29.96,5,2,7,0.00
2012-1-7,58.7,47.6,34.3,28.0,19.5,6.0,50,33,22,30.09,29.93,6,2,8,0.00
2012-1-8,55.9,44.6,33.9,13.0,6.0,1.0,31,21,13,30.26,30.09,6,2,8,0.00
2012-1-9,56.8,45.7,38.1,22.0,17.6,7.0,51,33,22,30.28,30.20,4,2,7,0.00
2012-1-10,57.9,46.1,38.0,27.0,23.1,19.0,54,41,27,30.23,30.10,5,2,7,0.00
2012-1-11,59.3,50.0,39.3,27.0,22.4,16.0,46,34,25,30.12,30.04,5,1,6,0.00
2012-1-12,57.0,47.3,37.5,24.0,13.9,1.0,44,27,17,30.13,30.01,7,2,11,0.00
2012-1-13,59.1,46.6,35.1,10.0,-1.0,-16.0,25,15,6,30.26,30.12,5,1,6,0.00
2012-1-14,60.3,47.9,39.1,11.0,-2.8,-24.0,27,13,3,30.23,30.13,5,2,9,0.00
2012-1-15,50.3,42.2,34.3,36.0,22.4,1.0,91,50,17,30.16,30.06,5,1,7,0.00
2012-1-16,43.2,35.6,30.7,35.0,32.3,26.0,96,88,64,30.23,30.06,4,1,9,0.00
2012-1-17,50.1,36.3,23.4,33.0,23.0,14.0,96,62,31,30.38,30.22,5,1,7,0.00
2012-1-18,57.5,43.7,34.4,19.0,7.7,-99.9,42,26,12,30.39,30.23,5,-25,6,0.00
2012-1-19,64.1,48.8,37.0,24.0,12.9,-2.0,41,25,7,30.25,30.03,4,2,6,0.00
2012-1-20,56.8,45.2,37.6,34.0,26.7,13.0,80,52,26,30.11,30.01,4,1,7,0.00
2012-1-21,49.2,41.1,34.1,45.0,37.0,24.0,96,86,53,30.10,29.97,9,2,16,0.00
2012-1-22,46.0,39.1,32.9,38.0,30.3,17.0,90,72,40,30.21,30.09,5,1,7,0.00
2012-1-23,45.5,38.4,31.7,38.0,29.5,-3.0,96,76,13,30.18,29.92,10,1,14,0.00
2012-1-24,51.2,39.9,31.0,38.0,29.7,18.0,96,70,28,30.36,30.03,5,1,7,0.00
2012-1-25,65.1,53.3,40.9,38.0,32.2,28.0,68,46,32,30.34,30.22,6,2,7,0.00
2012-1-26,68.6,57.0,48.0,36.0,30.0,24.0,59,37,22,30.22,29.99,7,2,10,0.00
2012-1-27,58.2,48.8,39.5,37.0,27.3,16.0,61,45,25,30.17,29.95,4,1,7,0.00
2012-1-28,60.0,46.5,32.5,18.0,10.5,0.0,49,26,9,30.34,30.16,5,2,8,0.00
2012-1-29,62.1,51.1,39.9,17.0,8.0,-1.0,28,18,11,30.32,30.12,7,2,8,0.00
2012-1-30,58.8,46.6,38.7,20.0,11.1,-2.0,37,25,14,30.11,30.00,5,2,8,0.00
2012-1-31,57.7,44.8,33.2,24.0,15.4,9.0,47,32,17,30.23,30.01,5,2,11,0.00
2012-2-1,56.3,46.6,37.4,40.0,25.2,16.0,94,48,23,30.24,30.04,5,2,9,0.00
2012-2-2,55.7,43.9,35.3,29.0,19.2,12.0,67,38,24,30.06,29.96,5,1,10,0.00
2012-2-3,52.0,40.8,32.7,19.0,13.4,7.0,44,33,23,30.12,30.02,4,1,10,0.00
2012-2-4,53.2,41.9,33.4,21.0,14.9,5.0,47,34,26,30.16,30.09,5,2,11,0.00
2012-2-5,54.7,42.9,34.4,22.0,16.0,5.0,48,34,22,30.15,30.07,8,2,11,0.00
2012-2-6,54.6,45.3,37.2,25.0,18.8,13.0,46,35,25,30.11,30.01,4,1,8,0.00
2012-2-7,49.3,45.4,39.9,37.0,22.9,7.0,74,43,20,30.02,29.90,5,2,10,0.00
2012-2-8,57.1,46.1,36.9,34.0,29.1,26.0,73,53,32,30.24,30.01,5,2,14,0.00
2012-2-9,64.3,52.6,43.4,30.0,26.6,21.0,51,37,25,30.28,30.17,6,2,7,0.00
2012-2-10,64.3,52.4,40.8,38.0,26.1,17.0,76,38,22,30.19,30.03,4,1,7,0.00
2012-2-11,45.8,40.2,35.1,39.0,34.6,25.0,96,81,55,30.03,29.90,4,1,8,0.00
2012-2-12,42.9,37.6,35.6,41.0,36.5,35.0,97,96,89,30.06,29.95,5,1,8,0.00
2012-2-13,38.3,35.3,30.1,38.0,34.7,29.0,98,97,97,30.06,29.89,9,1,14,0.00
2012-2-14,38.7,33.0,27.8,35.0,31.4,27.0,97,93,84,30.14,29.91,2,0,5,0.00
2012-2-15,32.8,32.0,30.2,32.0,31.4,30.0,98,97,94,30.13,29.93,3,0,9,0.00
2012-2-16,47.7,37.4,26.3,33.0,25.0,17.0,97,64,37,30.23,30.02,11,2,18,0.00
2012-2-17,54.9,42.3,32.8,24.0,18.6,11.0,65,40,22,30.25,30.16,8,2,8,0.00
2012-2-18,52.6,43.0,34.7,35.0,25.2,16.0,96,53,31,30.18,30.01,5,2,9,0.00
2012-2-19,42.3,35.6,30.9,38.0,34.0,29.0,97,94,79,30.15,29.95,5,1,6,0.00
2012-2-20,49.1,38.5,28.8,38.0,28.8,14.0,92,69,44,30.18,30.11,6,1,7,0.00
2012-2-21,57.0,45.4,35.4,28.0,24.8,21.0,70,46,27,30.25,30.14,6,2,8,0.00
2012-2-22,66.4,53.6,42.9,35.0,29.2,18.0,57,41,25,30.23,29.97,5,2,9,0.00
2012-2-23,68.3,56.5,44.5,32.0,21.4,9.0,35,26,15,29.97,29.84,9,2,9,0.00
2012-2-24,66.1,55.1,47.2,33.0,22.0,17.0,45,28,21,30.10,29.96,6,2,8,0.00
2012-2-25,60.3,50.8,38.5,41.0,30.0,20.0,89,48,30,30.09,29.92,4,1,7,0.00
2012-2-26,59.1,43.8,32.5,36.0,23.4,2.0,91,51,10,29.95,29.87,6,1,12,0.00
2012-2-27,36.6,32.4,27.4,35.0,30.4,26.0,95,92,81,29.95,29.81,7,0,12,0.00
2012-2-28,35.4,30.2,25.3,29.0,26.9,24.0,95,88,77,30.35,29.96,2,0,2,0.00
2012-2-29,40.5,35.8,29.0,33.0,31.2,24.0,96,83,70,30.35,30.23,5,2,10,0.00
2012-3-1,44.4,36.4,33.9,39.0,34.9,33.0,97,95,77,30.24,30.06,5,1,9,0.00
2012-3-2,51.4,39.8,29.8,34.0,18.6,-2.0,97,51,12,30.37,30.09,5,2,7,0.01
2012-3-3,62.2,47.0,35.5,27.0,19.1,12.0,56,35,18,30.38,30.29,6,2,7,0.00
2012-3-4,70.6,58.3,49.1,30.0,22.7,15.0,34,26,18,30.29,30.06,7,2,12,0.00
2012-3-5,69.0,57.8,48.1,31.0,20.6,10.0,48,25,15,30.07,29.91,6,2,8,0.00
2012-3-6,51.3,40.4,28.9,40.0,26.5,12.0,96,63,27,29.91,29.70,12,2,19,0.00
2012-3-7,44.6,34.1,26.2,18.0,12.6,3.0,55,42,28,30.26,29.76,11,2,21,0.17
2012-3-8,58.6,46.0,32.7,22.0,15.8,9.0,51,31,18,30.39,30.26,5,2,9,0.00
2012-3-9,64.7,51.6,39.5,26.0,17.4,7.0,43,27,16,30.36,30.10,7,2,8,0.00
2012-3-10,63.4,51.1,37.7,23.0,14.8,4.0,42,25,14,30.07,29.96,7,2,9,0.00
2012-3-11,57.5,46.9,36.5,36.0,22.4,6.0,80,42,17,30.03,29.95,6,1,9,0.00
2012-3-12,58.9,47.4,39.2,39.0,33.1,25.0,79,59,43,30.04,29.98,3,1,6,0.00
2012-3-13,54.8,46.3,40.4,37.0,28.5,20.0,80,51,37,30.07,29.98,6,2,8,0.00
2012-3-14,57.9,46.4,38.7,41.0,32.6,25.0,91,60,43,30.16,30.04,5,1,8,0.00
2012-3-15,61.9,50.8,38.4,43.0,34.1,24.0,90,55,31,30.15,30.05,5,1,7,0.00
2012-3-16,56.6,47.5,40.8,46.0,40.2,36.0,94,76,59,30.04,29.91,4,1,6,0.00
2012-3-17,41.6,36.0,27.3,41.0,34.6,26.0,96,94,89,29.88,29.67,8,1,15,1.32
2012-3-18,30.7,27.7,26.3,29.0,26.4,24.0,96,94,89,29.99,29.67,4,0,6,0.00
2012-3-19,41.8,30.6,22.5,30.0,25.8,21.0,95,84,58,30.13,29.94,3,0,4,0.62
2012-3-20,54.7,42.0,28.4,33.0,28.4,22.0,91,61,38,30.25,30.13,5,2,6,0.33
2012-3-21,64.2,50.5,36.0,40.0,34.5,30.0,81,56,35,30.22,30.02,6,2,8,0.00
2012-3-22,66.2,54.7,42.5,42.0,34.6,24.0,75,48,35,30.02,29.87,7,2,11,0.00
2012-3-23,62.9,49.7,40.2,42.0,33.6,22.0,78,55,36,30.02,29.92,6,1,7,0.00
2012-3-24,60.5,48.9,39.8,38.0,29.7,23.0,66,49,30,30.01,29.91,7,2,11,0.00
2012-3-25,53.0,40.1,31.1,39.0,30.4,20.0,94,71,38,29.94,29.79,8,1,18,0.55
2012-3-26,48.5,38.2,31.9,40.0,34.2,25.0,96,86,59,30.18,29.94,4,1,7,0.76
2012-3-27,57.4,42.5,33.3,41.0,30.2,23.0,78,63,47,30.14,30.06,4,2,7,0.00
2012-3-28,55.2,45.4,38.8,36.0,28.0,17.0,77,52,31,30.10,30.04,4,1,7,0.00
2012-3-29,64.7,49.8,40.6,47.0,40.6,30.0,93,72,50,30.08,29.97,4,1,9,0.00
2012-3-30,67.9,55.5,43.1,50.0,40.3,31.0,84,58,40,30.00,29.92,5,2,9,0.00
2012-3-31,58.8,48.3,40.4,47.0,40.9,34.0,95,76,59,29.94,29.89,7,1,19,0.07
2012-4-1,50.1,38.4,30.8,41.0,32.9,22.0,96,82,51,30.09,29.87,5,1,11,0.16
2012-4-2,60.4,47.1,35.0,28.0,21.4,12.0,61,38,21,30.13,29.98,7,2,10,0.00
2012-4-3,65.0,52.1,42.3,33.0,25.5,19.0,54,37,25,30.05,29.95,7,2,9,0.00
2012-4-4,63.9,52.0,40.9,32.0,26.4,14.0,59,38,26,30.00,29.87,5,2,7,0.00
2012-4-5,57.2,45.9,35.1,41.0,27.1,12.0,89,51,26,29.97,29.84,4,2,9,0.00
2012-4-6,62.4,45.8,29.4,27.0,18.7,9.0,71,37,17,30.12,29.96,4,2,9,0.00
2012-4-7,71.1,55.5,39.5,22.0,6.7,-7.0,34,16,5,30.12,30.05,4,2,10,0.00
2012-4-8,72.1,57.7,46.8,26.0,15.9,1.0,32,20,11,30.07,30.00,6,2,12,0.00
2012-4-9,72.2,57.3,45.7,22.0,15.5,7.0,36,21,10,30.01,29.92,6,2,12,0.00
2012-4-10,64.6,51.7,37.4,36.0,21.9,8.0,93,35,16,29.93,29.80,9,2,11,0.00
2012-4-11,40.6,38.1,35.1,38.0,36.3,33.0,96,93,85,30.14,29.81,6,1,9,0.68
2012-4-12,48.5,38.4,32.4,38.0,34.2,27.0,96,86,56,30.23,30.08,8,2,15,0.00
2012-4-13,40.2,35.2,30.7,37.0,33.8,30.0,97,94,72,30.07,29.76,6,1,13,0.19
2012-4-14,36.5,32.1,28.0,34.0,30.7,27.0,97,94,87,30.17,29.78,4,0,7,0.17
2012-4-15,56.6,44.1,32.4,39.0,34.8,30.0,97,72,46,30.27,30.17,5,2,7,0.61
2012-4-16,68.5,53.4,40.1,40.0,33.1,26.0,70,48,26,30.22,30.11,6,2,10,0.00
2012-4-17,70.5,58.5,46.4,42.0,33.0,23.0,63,39,25,30.12,29.98,6,2,8,0.00
2012-4-18,70.8,59.1,48.8,44.0,33.9,18.0,77,41,25,30.01,29.89,5,2,7,0.00
2012-4-19,76.8,63.5,47.9,52.0,42.4,32.0,69,48,31,29.95,29.87,5,2,10,0.00
2012-4-20,81.9,69.1,59.7,49.0,38.1,32.0,50,33,19,29.96,29.87,6,2,11,0.00
2012-4-21,81.6,70.4,63.2,54.0,40.6,34.0,51,35,24,29.91,29.81,6,2,8,0.00
2012-4-22,80.2,69.3,59.3,56.0,44.3,31.0,62,41,30,29.87,29.80,5,2,7,0.00
2012-4-23,66.1,53.3,44.3,55.0,43.0,30.0,97,73,28,29.95,29.79,5,1,7,0.02
2012-4-24,70.3,55.2,40.8,49.0,41.4,26.0,97,65,25,30.06,29.94,4,1,8,0.01
2012-4-25,74.2,60.0,45.4,50.0,38.9,-99.9,93,50,26,30.04,29.78,5,-10,13,0.00
2012-4-26,47.2,44.3,41.5,46.0,42.5,39.0,97,93,82,30.07,29.71,9,1,10,0.76
2012-4-27,64.1,50.6,39.7,53.0,45.8,39.0,97,84,60,30.10,29.97,5,1,7,0.00
2012-4-28,72.6,60.6,50.0,47.0,37.1,27.0,79,44,19,29.96,29.78,5,2,7,0.00
2012-4-29,75.8,62.7,52.2,52.0,32.5,22.0,68,34,17,29.88,29.77,8,2,15,0.00
2012-4-30,74.5,63.2,55.3,54.0,35.4,20.0,82,38,16,29.90,29.82,6,2,8,0.00
2012-5-1,54.7,49.4,43.7,50.0,45.6,38.0,97,88,54,29.84,29.75,3,1,5,0.00
2012-5-2,47.4,45.2,42.6,47.0,44.6,42.0,98,98,97,29.97,29.84,2,0,7,0.07
2012-5-3,53.4,46.2,41.5,52.0,45.1,40.0,98,96,89,30.06,29.95,4,1,7,0.02
2012-5-4,63.6,53.6,41.0,47.0,38.9,15.0,97,61,18,30.08,29.99,11,1,12,0.00
2012-5-5,69.7,54.6,39.5,50.0,39.7,23.0,85,60,29,30.00,29.93,5,1,6,0.00
2012-5-6,70.8,60.1,47.2,49.0,30.8,14.0,75,35,19,29.95,29.88,5,2,8,0.00
2012-5-7,74.9,62.5,51.9,39.0,21.6,7.0,54,23,11,29.93,29.83,8,2,14,0.00
2012-5-8,75.5,62.3,53.9,28.0,18.9,7.0,26,19,8,29.91,29.82,9,2,17,0.00
2012-5-9,79.4,66.2,52.2,43.0,29.3,18.0,49,26,15,29.90,29.79,6,2,9,0.00
2012-5-10,75.1,61.9,49.5,47.0,38.4,28.0,80,45,23,29.84,29.78,5,1,7,0.00
2012-5-11,71.8,58.1,43.9,48.0,38.0,19.0,79,49,26,29.97,29.78,4,0,6,0.00
2012-5-12,79.5,63.2,48.8,50.0,37.4,19.0,69,40,21,30.02,29.95,3,0,5,0.00
2012-5-13,82.7,67.3,49.7,47.0,34.9,15.0,58,32,14,30.02,29.93,3,1,6,0.00
2012-5-14,79.9,66.9,49.7,48.0,29.4,8.0,58,27,10,29.96,29.85,4,1,6,0.00
2012-5-15,74.4,61.7,47.6,41.0,26.4,-1.0,58,29,10,29.88,29.82,4,1,5,0.00
2012-5-16,85.7,71.5,53.7,49.0,32.2,17.0,46,25,16,29.89,29.76,4,1,5,0.00
2012-5-17,81.7,65.9,53.1,51.0,42.9,23.0,83,46,25,29.76,29.69,3,1,6,0.00
2012-5-18,64.7,51.8,44.6,52.0,45.8,33.0,97,82,45,29.89,29.66,5,1,6,0.00
2012-5-19,78.6,64.6,46.9,46.0,34.9,22.0,70,35,21,29.94,29.86,4,1,6,0.00
2012-5-20,86.0,71.1,59.4,43.0,33.7,23.0,44,27,10,29.89,29.83,5,2,10,0.00
2012-5-21,86.4,72.1,62.6,46.0,38.1,29.0,47,30,18,29.88,29.82,4,1,7,0.00
2012-5-22,82.1,67.2,54.2,50.0,37.9,17.0,74,37,18,29.85,29.71,5,1,6,0.00
2012-5-23,70.5,58.3,50.2,52.0,48.6,45.0,94,72,48,29.71,29.62,5,1,7,0.00
2012-5-24,71.0,56.6,42.8,54.0,48.0,38.0,96,75,48,29.66,29.59,3,1,7,0.00
2012-5-25,51.2,44.7,36.3,48.0,43.2,35.0,97,94,86,29.80,29.60,3,0,7,0.04
2012-5-26,51.8,41.4,35.0,40.0,37.2,33.0,97,86,65,30.08,29.80,3,0,6,0.06
2012-5-27,69.3,51.7,33.7,43.0,35.6,25.0,95,58,29,30.09,30.01,4,1,6,0.00
2012-5-28,77.1,62.1,47.2,44.0,33.4,21.0,60,36,19,30.00,29.89,4,1,6,0.00
2012-5-29,76.7,62.5,48.6,40.0,31.3,13.0,59,32,19,29.96,29.89,3,1,6,0.00
2012-5-30,76.8,62.4,52.8,49.0,37.4,-99.9,74,42,28,29.97,29.91,3,-11,5,0.00
2012-5-31,90.1,74.0,54.6,46.0,29.8,16.0,44,21,9,29.93,29.77,4,1,6,0.00
2012-6-1,88.1,74.1,55.4,49.0,34.4,13.0,50,25,12,29.78,29.70,4,1,6,0.00
2012-6-2,81.6,63.2,50.6,53.0,42.0,27.0,80,48,28,29.80,29.71,4,1,5,0.00
2012-6-3,79.6,64.1,49.9,53.0,45.1,30.0,74,52,35,29.84,29.75,4,1,5,0.00
2012-6-4,74.3,60.2,50.1,53.0,47.7,40.0,93,65,43,29.86,29.78,4,1,7,0.00
2012-6-5,66.7,53.1,42.6,47.0,44.0,31.0,96,74,47,29.89,29.81,3,1,7,0.00
2012-6-6,77.6,58.3,40.9,45.0,35.2,23.0,89,47,15,29.88,29.80,3,1,8,0.00
2012-6-7,81.6,67.6,53.0,47.0,32.3,22.0,56,29,18,29.84,29.79,3,1,6,0.00
2012-6-8,79.0,66.5,55.8,50.0,40.5,30.0,71,41,24,29.79,29.72,4,1,6,0.00
2012-6-9,72.8,59.1,46.6,51.0,43.9,34.0,89,59,43,29.76,29.69,5,1,6,0.00
2012-6-10,79.0,61.9,44.7,51.0,39.6,18.0,89,47,17,29.90,29.76,6,1,6,0.00
2012-6-11,83.5,70.0,58.2,51.0,32.8,21.0,49,26,19,29.89,29.85,4,1,5,0.00
2012-6-12,84.5,72.8,63.2,52.0,35.9,24.0,62,27,19,29.88,29.78,5,1,6,0.00
2012-6-13,81.0,66.9,52.2,52.0,37.5,13.0,70,36,16,29.80,29.70,3,1,5,0.00
2012-6-14,78.8,63.4,49.0,51.0,38.0,21.0,70,40,24,29.77,29.71,3,1,6,0.00
2012-6-15,80.4,66.5,53.4,54.0,39.0,12.0,69,38,17,29.75,29.70,4,1,6,0.00
2012-6-16,84.5,71.0,58.8,50.0,32.3,20.0,40,25,15,29.84,29.73,9,2,11,0.00
2012-6-17,88.8,76.8,59.0,48.0,31.2,0.0,44,20,5,29.86,29.78,7,1,13,0.00
2012-6-18,81.7,71.6,60.3,46.0,30.6,11.0,59,24,10,29.80,29.74,4,1,8,0.00
2012-6-19,81.4,66.0,55.8,48.0,37.9,31.0,67,37,16,29.80,29.73,4,1,6,0.00
2012-6-20,86.9,66.6,49.1,51.0,38.9,28.0,57,38,22,29.81,29.72,3,1,5,0.00
2012-6-21,81.6,67.7,56.3,49.0,39.6,21.0,63,38,17,29.81,29.77,4,1,8,0.00
2012-6-22,78.1,63.5,46.7,47.0,34.4,25.0,65,36,18,29.83,29.75,4,1,7,0.00
2012-6-23,77.6,63.8,52.5,47.0,39.2,25.0,67,42,27,29.81,29.72,4,1,5,0.00
2012-6-24,82.7,63.7,49.1,49.0,41.1,31.0,66,45,28,29.92,29.80,3,1,5,0.00
2012-6-25,81.8,63.5,49.3,41.0,33.2,20.0,60,34,18,29.95,29.87,4,1,5,0.00
2012-6-26,83.0,65.8,49.8,41.0,24.2,1.0,44,22,11,29.90,29.77,3,1,5,0.00
2012-6-27,87.1,64.5,0.2,36.0,21.5,9.0,34,18,11,29.84,29.78,3,-23,4,0.00
2012-7-3,82.9,70.9,61.5,57.0,51.3,-99.9,71,54,40,29.80,0.00,5,-19,7,0.00
2012-7-4,82.1,67.1,57.1,60.0,52.7,45.0,79,61,42,29.83,29.76,4,0,9,0.00
2012-7-5,84.7,68.6,57.4,58.0,48.7,28.0,68,51,23,29.89,29.83,3,1,7,0.00
2012-7-6,83.4,71.0,60.3,56.0,42.5,12.0,59,37,12,29.92,29.86,4,1,6,0.00
2012-7-7,86.1,72.6,62.1,47.0,31.1,5.0,40,23,9,29.94,29.88,4,1,7,0.00
2012-7-8,90.8,74.4,63.7,42.0,28.8,10.0,40,20,11,29.95,29.87,4,1,7,0.00
2012-7-9,93.7,79.6,65.6,45.0,37.9,31.0,34,23,14,29.89,29.80,4,1,6,0.00
2012-7-10,93.9,80.8,71.1,55.0,42.7,37.0,48,27,16,29.81,29.72,4,1,7,0.00
2012-7-11,96.4,80.1,66.9,54.0,45.7,38.0,51,31,18,29.79,29.70,6,1,6,0.00
2012-7-12,81.2,73.7,68.3,60.0,53.3,41.0,73,51,28,29.78,29.68,4,1,13,0.00
2012-7-13,77.0,66.7,62.9,65.0,56.7,-99.9,93,75,58,29.89,29.76,4,-36,4,0.01
2012-7-14,84.5,70.6,59.4,58.0,55.2,51.0,83,60,37,29.90,29.80,3,1,6,0.00
2012-7-15,83.7,68.2,56.7,61.0,45.6,18.0,81,50,13,29.86,29.81,3,1,6,0.00
2012-7-16,78.9,63.0,47.2,42.0,29.8,17.0,44,30,17,29.89,29.81,3,1,5,0.00
2012-7-17,76.9,60.8,45.7,50.0,35.3,15.0,72,40,23,29.97,29.87,3,1,5,0.00
2012-7-18,81.5,64.2,52.4,45.0,31.8,-99.9,53,32,18,29.98,29.90,5,-21,8,0.00
2012-7-19,88.7,73.4,62.7,49.0,43.5,38.0,55,36,20,29.95,29.87,3,1,7,0.00
2012-7-20,86.4,73.3,60.3,53.0,49.6,45.0,61,45,28,29.93,29.86,5,1,8,0.00
2012-7-21,90.6,77.2,68.2,53.0,49.5,46.0,50,39,24,29.89,29.78,4,1,6,0.00
2012-7-22,90.4,76.0,64.1,62.0,54.1,44.0,63,47,34,29.86,29.79,3,1,7,0.00
2012-7-23,85.9,73.1,64.5,55.0,51.8,45.0,69,49,31,29.87,29.82,4,1,6,0.00
2012-7-24,84.7,71.1,59.2,52.0,41.8,24.0,66,37,19,29.90,29.84,4,1,5,0.00
2012-7-25,86.0,69.0,57.3,49.0,30.5,13.0,54,25,12,29.95,29.86,3,1,4,0.00
2012-7-26,85.8,69.2,56.2,44.0,30.5,18.0,42,24,17,29.93,29.87,3,1,5,0.00
2012-7-27,83.7,69.4,56.0,46.0,32.0,12.0,50,27,13,29.92,29.86,4,1,8,0.00
2012-7-28,88.6,72.5,57.0,43.0,22.0,-3.0,46,17,6,29.94,29.87,4,1,5,0.00
2012-7-29,89.2,72.8,57.0,55.0,38.7,11.0,52,31,10,29.92,29.83,4,0,7,0.00
2012-7-30,79.9,70.3,62.2,67.0,54.3,45.0,72,57,45,29.91,29.82,5,0,5,0.00
2012-7-31,77.6,68.4,62.0,62.0,52.2,43.0,81,57,43,29.96,29.88,3,0,4,0.00
2012-8-1,84.2,68.5,56.0,53.0,48.3,41.0,72,50,32,30.01,29.92,4,0,6,0.00
2012-8-2,86.4,71.8,61.4,57.0,53.4,50.0,77,54,32,29.95,29.82,4,1,7,0.00
2012-8-3,82.7,69.7,60.4,58.0,51.7,43.0,69,54,40,29.82,29.75,2,0,4,0.00
2012-8-4,87.1,74.8,65.1,58.0,52.5,47.0,61,47,35,29.84,29.76,3,1,6,0.00
2012-8-5,91.4,77.9,66.4,57.0,50.8,46.0,56,40,23,29.92,29.83,3,1,8,0.00
2012-8-6,92.7,79.8,69.2,55.0,49.3,45.0,47,35,24,29.93,29.84,4,1,6,0.00
2012-8-7,94.3,81.0,69.0,57.0,51.4,47.0,50,37,25,29.88,29.79,4,1,7,0.00
2012-8-8,94.0,82.2,72.1,56.0,52.3,49.0,47,36,26,29.83,29.77,4,1,6,0.00
2012-8-9,97.0,83.4,74.7,57.0,52.2,49.0,48,35,22,29.82,29.71,3,1,9,0.00
2012-8-10,97.7,82.1,69.8,58.0,53.0,47.0,61,38,21,29.76,29.64,6,1,9,0.00
2012-8-11,94.3,79.6,68.9,58.0,52.1,44.0,48,39,27,29.76,29.66,8,1,15,0.00
2012-8-12,94.3,81.4,72.4,57.0,52.0,44.0,50,37,27,29.77,29.70,3,1,8,0.00
2012-8-13,94.1,78.3,67.0,57.0,52.3,48.0,63,42,26,29.79,29.71,4,1,9,0.12
2012-8-14,93.0,78.6,67.4,58.0,51.9,38.0,56,41,20,29.79,29.69,3,1,9,0.00
2012-8-15,87.5,74.4,64.4,60.0,47.0,35.0,65,39,27,29.81,29.72,4,1,6,0.00
2012-8-16,88.4,74.7,66.4,70.0,52.1,33.0,87,48,22,29.87,29.77,6,1,11,0.30
2012-8-17,80.2,70.0,63.5,69.0,61.1,54.0,94,74,54,29.88,29.82,3,0,5,1.86
2012-8-18,83.2,70.4,64.1,66.0,61.0,58.0,87,73,50,29.90,29.79,3,1,5,0.00
2012-8-19,87.3,73.2,63.8,63.0,59.4,57.0,84,64,41,29.84,29.75,3,1,6,0.00
2012-8-20,86.9,72.9,61.9,61.0,57.4,54.0,83,61,36,29.84,29.77,4,0,6,0.00
2012-8-21,83.8,72.1,63.7,62.0,57.9,55.0,78,62,40,29.82,29.76,3,0,6,0.00
2012-8-22,78.8,69.0,60.9,62.0,59.1,57.0,90,72,49,29.84,29.77,4,0,6,0.00
2012-8-23,79.2,68.6,59.1,62.0,55.3,39.0,84,64,35,29.87,29.80,3,1,5,0.00
2012-8-24,83.6,71.0,61.7,59.0,51.1,41.0,72,51,36,29.86,29.77,4,1,5,0.00
2012-8-25,82.9,70.1,57.4,60.0,55.5,51.0,80,61,43,29.78,29.73,4,1,5,0.00
2012-8-26,82.3,66.0,49.8,51.0,39.5,22.0,86,42,18,29.94,29.78,3,1,5,0.00
2012-8-27,88.0,73.7,59.7,45.0,37.4,15.0,44,28,14,29.96,29.86,4,1,6,0.00
2012-8-28,90.8,77.7,69.0,53.0,44.1,38.0,44,31,21,29.89,29.78,3,1,6,0.00
2012-8-29,91.1,76.8,64.4,57.0,50.6,43.0,60,41,26,29.81,29.71,5,1,8,0.00
2012-8-30,84.6,69.7,61.7,66.0,57.3,51.0,85,66,41,29.80,29.71,5,1,9,0.05
2012-8-31,81.2,69.8,60.0,60.0,50.3,24.0,84,55,18,29.89,29.79,6,1,7,0.00
2012-9-1,81.4,71.1,56.3,36.0,26.4,4.0,31,19,10,29.92,29.84,8,1,13,0.00
2012-9-2,86.2,68.6,53.0,39.0,19.3,3.0,38,17,4,29.96,29.88,3,1,4,0.00